createdAt,value
2023-01-02T00:00:23.575Z,8.91
2023-01-02T00:02:50.748Z,8.71
2023-01-02T00:05:18.030Z,8.53
2023-01-02T00:07:44.974Z,8.45
2023-01-02T00:10:11.915Z,8.92
2023-01-02T00:12:38.815Z,9.21
2023-01-02T00:15:06.474Z,9.17
2023-01-02T00:17:33.438Z,8.96
2023-01-02T00:20:00.830Z,8.74
2023-01-02T00:22:27.873Z,8.55
2023-01-02T00:24:54.852Z,8.40
2023-01-02T00:27:21.709Z,8.29
2023-01-02T00:29:48.592Z,8.71
2023-01-02T00:32:15.655Z,9.07
2023-01-02T00:34:42.594Z,9.00
2023-01-02T00:37:09.551Z,8.87
2023-01-02T00:39:36.482Z,8.66
2023-01-02T00:42:04.563Z,8.46
2023-01-02T00:44:31.512Z,8.28
2023-01-02T00:46:58.653Z,8.18
2023-01-02T00:49:26.350Z,8.63
2023-01-02T00:51:53.256Z,9.04
2023-01-02T00:54:20.227Z,9.03
2023-01-02T00:56:47.253Z,8.83
2023-01-02T00:59:14.235Z,8.60
2023-01-02T01:01:41.417Z,8.39
2023-01-02T01:04:08.908Z,8.19
2023-01-02T01:06:35.952Z,7.99
2023-01-02T01:09:03.012Z,8.34
2023-01-02T01:11:30.075Z,8.81
2023-01-02T01:13:57.707Z,8.85
2023-01-02T01:16:25.902Z,8.68
2023-01-02T01:18:56.819Z,8.41
2023-01-02T01:21:23.763Z,8.16
2023-01-02T01:23:52.326Z,7.93
2023-01-02T01:26:19.404Z,7.74
2023-01-02T01:28:46.439Z,8.12
2023-01-02T01:31:15.092Z,8.58
2023-01-02T01:33:42.308Z,8.61
2023-01-02T01:36:11.271Z,8.41
2023-01-02T01:38:38.251Z,8.14
2023-01-02T01:41:05.817Z,7.87
2023-01-02T01:43:35.993Z,7.67
2023-01-02T01:46:03.022Z,7.51
2023-01-02T01:48:30.196Z,7.95
2023-01-02T01:50:57.254Z,8.42
2023-01-02T01:53:24.919Z,8.43
2023-01-02T01:55:53.794Z,8.21
2023-01-02T01:58:22.911Z,7.93
2023-01-02T02:00:49.867Z,7.67
2023-01-02T02:03:20.539Z,7.45
2023-01-02T02:05:47.433Z,7.27
2023-01-02T02:08:27.191Z,7.67
2023-01-02T02:10:55.246Z,8.14
2023-01-02T02:13:22.179Z,8.09
2023-01-02T02:16:16.826Z,7.83
2023-01-02T02:19:02.953Z,7.53
2023-01-02T02:21:48.807Z,7.32
2023-01-02T02:24:31.088Z,7.10
2023-01-02T02:27:23.343Z,6.93
2023-01-02T02:30:19.839Z,7.55
2023-01-02T02:32:56.090Z,7.98
2023-01-02T02:35:41.872Z,7.93
2023-01-02T02:38:48.447Z,7.69
2023-01-02T02:41:24.585Z,7.37
2023-01-02T02:43:56.062Z,7.12
2023-01-02T02:46:28.470Z,6.94
2023-01-02T02:49:04.507Z,7.36
2023-01-02T02:51:43.640Z,7.89
2023-01-02T02:54:27.568Z,7.89
2023-01-02T02:56:54.611Z,7.64
2023-01-02T02:59:21.680Z,7.40
2023-01-02T03:01:48.832Z,7.18
2023-01-02T03:04:18.575Z,6.96
2023-01-02T03:07:10.763Z,6.79
2023-01-02T03:09:57.385Z,7.35
2023-01-02T03:12:24.286Z,7.77
2023-01-02T03:15:17.577Z,7.69
2023-01-02T03:18:03.696Z,7.40
2023-01-02T03:20:38.463Z,7.13
2023-01-02T03:23:07.482Z,6.90
2023-01-02T03:25:34.963Z,6.77
2023-01-02T03:28:01.881Z,7.27
2023-01-02T03:30:28.813Z,7.78
2023-01-02T03:33:03.079Z,7.86
2023-01-02T03:35:34.528Z,7.71
2023-01-02T03:38:01.430Z,7.45
2023-01-02T03:40:31.378Z,7.22
2023-01-02T03:43:03.326Z,7.03
2023-01-02T03:45:35.173Z,7.51
2023-01-02T03:48:21.996Z,7.93
2023-01-02T03:50:51.601Z,7.87
2023-01-02T03:53:18.846Z,7.57
2023-01-02T03:55:59.938Z,7.23
2023-01-02T03:59:15.509Z,6.87
2023-01-02T04:01:48.337Z,6.59
2023-01-02T04:04:33.996Z,7.05
2023-01-02T04:07:02.248Z,7.21
2023-01-02T04:09:30.523Z,6.99
2023-01-02T04:12:01.139Z,6.67
2023-01-02T04:14:31.241Z,6.33
2023-01-02T04:16:59.073Z,6.08
2023-01-02T04:19:32.943Z,5.97
2023-01-02T04:22:02.142Z,6.49
2023-01-02T04:24:33.968Z,7.06
2023-01-02T04:27:04.588Z,7.18
2023-01-02T04:29:31.589Z,6.95
2023-01-02T04:32:03.238Z,6.58
2023-01-02T04:34:31.729Z,6.19
2023-01-02T04:36:59.280Z,5.88
2023-01-02T04:39:26.591Z,6.10
2023-01-02T04:41:53.582Z,6.37
2023-01-02T04:44:20.582Z,6.27
2023-01-02T04:46:47.578Z,5.97
2023-01-02T04:49:14.721Z,5.64
2023-01-02T04:51:41.693Z,5.31
2023-01-02T04:54:13.528Z,5.15
2023-01-02T04:56:40.475Z,5.63
2023-01-02T04:59:07.348Z,5.89
2023-01-02T05:01:34.316Z,5.80
2023-01-02T05:04:01.512Z,5.53
2023-01-02T05:06:28.551Z,5.22
2023-01-02T05:08:55.502Z,4.98
2023-01-02T05:11:22.448Z,5.31
2023-01-02T05:13:49.476Z,5.54
2023-01-02T05:16:16.692Z,5.45
2023-01-02T05:18:43.800Z,5.25
2023-01-02T05:21:31.033Z,5.00
2023-01-02T05:23:59.605Z,5.19
2023-01-02T05:26:26.644Z,5.49
2023-01-02T05:28:54.402Z,5.51
2023-01-02T05:31:21.489Z,5.29
2023-01-02T05:33:55.272Z,5.13
2023-01-02T05:36:23.027Z,5.47
2023-01-02T05:38:50.177Z,5.70
2023-01-02T05:41:17.422Z,5.49
2023-01-02T05:43:44.353Z,5.31
2023-01-02T05:46:13.268Z,5.06
2023-01-02T05:48:40.734Z,5.09
2023-01-02T05:51:09.604Z,5.36
2023-01-02T05:53:36.862Z,5.40
2023-01-02T05:56:11.901Z,5.18
2023-01-02T05:58:40.161Z,5.03
2023-01-02T06:01:09.079Z,4.86
2023-01-02T06:03:36.248Z,5.27
2023-01-02T06:06:10.690Z,5.42
2023-01-02T06:08:38.206Z,5.35
2023-01-02T06:11:05.744Z,5.25
2023-01-02T06:13:33.817Z,5.13
2023-01-02T06:16:01.198Z,5.49
2023-01-02T06:18:28.932Z,5.78
2023-01-02T06:21:03.123Z,5.70
2023-01-02T06:23:30.314Z,5.59
2023-01-02T06:26:06.158Z,5.36
2023-01-02T06:28:33.295Z,5.57
2023-01-02T06:31:11.901Z,6.00
2023-01-02T06:33:38.964Z,6.01
2023-01-02T06:36:07.040Z,5.84
2023-01-02T06:38:34.624Z,5.60
2023-01-02T06:41:02.530Z,5.50
2023-01-02T06:43:29.917Z,6.01
2023-01-02T06:45:58.749Z,6.33
2023-01-02T06:48:25.861Z,6.28
2023-01-02T06:50:52.900Z,6.25
2023-01-02T06:53:19.848Z,6.14
2023-01-02T06:55:51.846Z,6.05
2023-01-02T06:58:19.785Z,6.54
2023-01-02T07:00:47.265Z,7.06
2023-01-02T07:03:14.525Z,7.13
2023-01-02T07:05:41.749Z,7.04
2023-01-02T07:08:09.105Z,6.83
2023-01-02T07:10:36.256Z,6.67
2023-01-02T07:13:03.397Z,6.68
2023-01-02T07:15:30.451Z,7.26
2023-01-02T07:17:57.381Z,7.92
2023-01-02T07:20:24.432Z,8.09
2023-01-02T07:22:54.870Z,8.04
2023-01-02T07:25:22.011Z,7.88
2023-01-02T07:27:48.926Z,7.74
2023-01-02T07:30:15.999Z,7.68
2023-01-02T07:32:43.683Z,7.58
2023-01-02T07:35:11.200Z,7.53
2023-01-02T07:37:38.391Z,8.02
2023-01-02T07:40:06.271Z,8.49
2023-01-02T07:42:33.299Z,8.58
2023-01-02T07:45:00.200Z,8.56
2023-01-02T07:47:27.183Z,8.49
2023-01-02T07:49:54.286Z,8.46
2023-01-02T07:52:21.300Z,8.46
2023-01-02T07:54:48.321Z,8.45
2023-01-02T07:57:15.216Z,8.49
2023-01-02T07:59:45.249Z,8.52
2023-01-02T08:02:12.473Z,8.57
2023-01-02T08:04:39.493Z,9.19
2023-01-02T08:07:06.524Z,9.78
2023-01-02T08:09:33.915Z,9.98
2023-01-02T08:12:00.822Z,10.00
2023-01-02T08:14:27.977Z,9.95
2023-01-02T08:16:54.984Z,9.86
2023-01-02T08:19:22.066Z,9.64
2023-01-02T08:21:49.070Z,9.47
2023-01-02T08:24:15.957Z,9.31
2023-01-02T08:26:43.003Z,9.26
2023-01-02T08:29:10.055Z,9.38
2023-01-02T08:31:43.379Z,9.43
2023-01-02T08:34:14.731Z,9.48
2023-01-02T08:36:42.256Z,9.48
2023-01-02T08:39:09.401Z,9.54
2023-01-02T08:41:37.962Z,9.61
2023-01-02T08:44:05.233Z,9.67
2023-01-02T08:46:38.419Z,9.71
2023-01-02T08:49:09.367Z,9.73
2023-01-02T08:51:36.421Z,9.78
2023-01-02T08:54:03.444Z,9.88
2023-01-02T08:56:31.785Z,10.09
2023-01-02T08:59:02.460Z,10.31
2023-01-02T09:01:30.897Z,10.54
2023-01-02T09:03:58.345Z,10.70
2023-01-02T09:06:27.297Z,10.89
2023-01-02T09:08:55.923Z,11.06
2023-01-02T09:11:27.563Z,11.23
2023-01-02T09:13:55.095Z,11.32
2023-01-02T09:16:22.655Z,11.42
2023-01-02T09:18:49.712Z,11.49
2023-01-02T09:21:16.759Z,11.61
2023-01-02T09:23:43.752Z,11.80
2023-01-02T09:26:11.563Z,11.86
2023-01-02T09:28:38.614Z,11.90
2023-01-02T09:31:11.844Z,12.10
2023-01-02T09:33:40.693Z,12.18
2023-01-02T09:36:08.974Z,12.12
2023-01-02T09:38:36.152Z,12.39
2023-01-02T09:41:11.162Z,12.59
2023-01-02T09:43:41.598Z,12.75
2023-01-02T09:46:10.714Z,12.77
2023-01-02T09:48:37.743Z,12.95
2023-01-02T09:51:07.767Z,12.97
2023-01-02T09:53:35.320Z,12.99
2023-01-02T09:56:10.945Z,13.07
2023-01-02T09:58:50.591Z,12.86
2023-01-02T10:01:51.617Z,12.70
2023-01-02T10:04:49.921Z,12.88
2023-01-02T10:07:31.601Z,12.88
2023-01-02T10:10:14.017Z,13.06
2023-01-02T10:13:00.308Z,13.44
2023-01-02T10:15:28.172Z,13.74
2023-01-02T10:17:59.024Z,13.93
2023-01-02T10:20:40.400Z,14.13
2023-01-02T10:23:10.402Z,14.28
2023-01-02T10:25:40.254Z,14.39
2023-01-02T10:28:28.339Z,14.49
2023-01-02T10:31:07.653Z,14.56
2023-01-02T10:34:00.462Z,14.64
2023-01-02T10:36:33.158Z,14.67
2023-01-02T10:39:05.407Z,14.68
2023-01-02T10:41:32.346Z,14.57
2023-01-02T10:44:04.213Z,14.55
2023-01-02T10:46:36.094Z,14.55
2023-01-02T10:49:04.452Z,14.39
2023-01-02T10:51:31.496Z,14.45
2023-01-02T10:54:07.068Z,14.47
2023-01-02T10:56:38.676Z,14.43
2023-01-02T10:59:23.785Z,14.46
2023-01-02T11:01:59.034Z,14.31
2023-01-02T11:04:30.350Z,14.51
2023-01-02T11:07:01.849Z,14.54
2023-01-02T11:09:29.670Z,14.42
2023-01-02T11:11:57.295Z,14.28
2023-01-02T11:14:28.415Z,14.36
2023-01-02T11:17:01.858Z,14.32
2023-01-02T11:19:29.993Z,14.21
2023-01-02T11:21:57.311Z,14.29
2023-01-02T11:24:27.312Z,14.35
2023-01-02T11:26:54.394Z,14.42
2023-01-02T11:29:32.189Z,14.49
2023-01-02T11:33:13.874Z,14.49
2023-01-02T11:35:49.254Z,14.48
2023-01-02T11:38:28.767Z,14.53
2023-01-02T11:41:02.042Z,14.63
2023-01-02T11:43:52.266Z,14.55
2023-01-02T11:46:25.413Z,14.49
2023-01-02T11:48:54.007Z,14.59
2023-01-02T11:51:21.051Z,14.72
2023-01-02T11:53:48.149Z,14.77
2023-01-02T11:56:29.381Z,14.70
2023-01-02T11:59:02.118Z,14.64
2023-01-02T12:01:52.233Z,14.58
2023-01-02T12:04:19.411Z,14.61
2023-01-02T12:07:15.455Z,14.65
2023-01-02T12:10:00.445Z,14.65
2023-01-02T12:12:34.346Z,14.41
2023-01-02T12:15:18.756Z,14.08
2023-01-02T12:17:53.693Z,13.93
2023-01-02T12:20:33.123Z,13.67
2023-01-02T12:23:04.809Z,13.53
2023-01-02T12:25:31.829Z,13.46
2023-01-02T12:28:22.037Z,13.34
2023-01-02T12:30:55.818Z,13.30
2023-01-02T12:33:49.636Z,13.28
2023-01-02T12:36:32.528Z,13.22
2023-01-02T12:39:18.610Z,13.17
2023-01-02T12:42:00.560Z,13.20
2023-01-02T12:44:55.413Z,13.16
2023-01-02T12:47:49.486Z,12.99
2023-01-02T12:50:48.449Z,12.91
2023-01-02T12:53:36.457Z,12.85
2023-01-02T12:56:19.137Z,12.71
2023-01-02T12:59:08.305Z,12.54
2023-01-02T13:01:37.413Z,12.53
2023-01-02T13:04:36.604Z,12.49
2023-01-02T13:07:09.628Z,12.53
2023-01-02T13:09:41.357Z,13.03
2023-01-02T13:12:17.642Z,13.14
2023-01-02T13:14:47.478Z,13.12
2023-01-02T13:17:14.604Z,13.01
2023-01-02T13:19:50.104Z,12.78
2023-01-02T13:22:38.589Z,12.57
2023-01-02T13:25:06.454Z,12.33
2023-01-02T13:27:33.476Z,12.15
2023-01-02T13:30:01.801Z,12.06
2023-01-02T13:32:29.620Z,11.97
2023-01-02T13:34:57.082Z,11.90
2023-01-02T13:37:25.988Z,12.33
2023-01-02T13:40:02.877Z,12.78
2023-01-02T13:42:51.294Z,12.78
2023-01-02T13:45:23.898Z,12.56
2023-01-02T13:47:56.713Z,12.28
2023-01-02T13:50:33.950Z,12.05
2023-01-02T13:53:10.217Z,11.89
2023-01-02T13:55:40.752Z,11.66
2023-01-02T13:58:18.469Z,11.52
2023-01-02T14:00:53.538Z,11.44
2023-01-02T14:03:21.428Z,11.91
2023-01-02T14:06:30.770Z,12.22
2023-01-02T14:09:17.531Z,12.07
2023-01-02T14:11:56.700Z,11.77
2023-01-02T14:14:37.603Z,11.51
2023-01-02T14:17:14.687Z,11.27
2023-01-02T14:19:41.838Z,11.07
2023-01-02T14:22:16.816Z,10.92
2023-01-02T14:24:53.120Z,11.27
2023-01-02T14:27:24.370Z,11.48
2023-01-02T14:29:53.890Z,11.34
2023-01-02T14:32:39.579Z,11.11
2023-01-02T14:35:31.002Z,10.92
2023-01-02T14:38:17.713Z,10.71
2023-01-02T14:40:46.707Z,10.58
2023-01-02T14:43:34.222Z,10.96
2023-01-02T14:46:04.387Z,11.20
2023-01-02T14:48:40.070Z,11.07
2023-01-02T14:51:10.003Z,10.86
2023-01-02T14:53:40.522Z,10.62
2023-01-02T14:56:15.882Z,10.39
2023-01-02T14:58:49.964Z,10.33
2023-01-02T15:01:42.921Z,10.81
2023-01-02T15:04:23.490Z,11.04
2023-01-02T15:07:30.880Z,10.92
2023-01-02T15:10:17.794Z,10.69
2023-01-02T15:13:04.233Z,10.44
2023-01-02T15:15:36.382Z,10.28
2023-01-02T15:18:16.934Z,10.71
2023-01-02T15:20:43.916Z,10.94
2023-01-02T15:23:17.992Z,10.84
2023-01-02T15:25:45.047Z,10.65
2023-01-02T15:28:44.635Z,10.43
2023-01-02T15:31:13.432Z,10.11
2023-01-02T15:33:40.881Z,10.00
2023-01-02T15:36:17.455Z,10.38
2023-01-02T15:38:44.541Z,10.51
2023-01-02T15:41:18.457Z,10.36
2023-01-02T15:44:04.505Z,10.17
2023-01-02T15:46:31.604Z,9.85
2023-01-02T15:48:59.524Z,9.64
2023-01-02T15:51:40.376Z,10.05
2023-01-02T15:54:13.448Z,10.35
2023-01-02T15:56:41.958Z,10.28
2023-01-02T15:59:25.704Z,10.04
2023-01-02T16:01:52.678Z,9.72
2023-01-02T16:04:30.963Z,9.42
2023-01-02T16:06:59.330Z,9.20
2023-01-02T16:09:31.335Z,9.61
2023-01-02T16:12:00.499Z,9.81
2023-01-02T16:14:33.798Z,9.62
2023-01-02T16:17:05.752Z,9.45
2023-01-02T16:19:48.082Z,9.21
2023-01-02T16:22:24.506Z,9.13
2023-01-02T16:25:18.504Z,9.57
2023-01-02T16:28:04.287Z,9.70
2023-01-02T16:30:51.403Z,9.49
2023-01-02T16:33:32.075Z,9.24
2023-01-02T16:36:05.267Z,8.97
2023-01-02T16:38:45.023Z,9.32
2023-01-02T16:41:41.340Z,9.59
2023-01-02T16:44:14.303Z,9.53
2023-01-02T16:46:42.228Z,9.27
2023-01-02T16:49:12.116Z,8.96
2023-01-02T16:51:43.048Z,8.82
2023-01-02T16:54:13.916Z,9.19
2023-01-02T16:56:40.880Z,9.43
2023-01-02T16:59:07.998Z,9.32
2023-01-02T17:01:36.102Z,9.06
2023-01-02T17:04:03.921Z,8.78
2023-01-02T17:06:32.199Z,8.64
2023-01-02T17:08:59.355Z,9.03
2023-01-02T17:11:26.627Z,9.18
2023-01-02T17:13:54.775Z,9.06
2023-01-02T17:16:21.946Z,8.87
2023-01-02T17:18:50.294Z,8.67
2023-01-02T17:21:19.506Z,8.85
2023-01-02T17:23:46.855Z,9.22
2023-01-02T17:26:15.461Z,9.23
2023-01-02T17:28:43.999Z,9.02
2023-01-02T17:31:14.493Z,8.79
2023-01-02T17:33:41.694Z,8.56
2023-01-02T17:36:09.302Z,8.91
2023-01-02T17:38:36.605Z,9.19
2023-01-02T17:41:03.655Z,9.08
2023-01-02T17:43:32.859Z,8.90
2023-01-02T17:46:38.792Z,8.64
2023-01-02T17:48:55.209Z,8.68
2023-01-02T17:51:22.869Z,8.95
2023-01-02T17:53:53.089Z,8.81
2023-01-02T17:56:22.768Z,8.62
2023-01-02T17:58:51.206Z,8.37
2023-01-02T18:01:21.752Z,8.48
2023-01-02T18:03:49.067Z,8.82
2023-01-02T18:06:16.241Z,8.78
2023-01-02T18:08:43.373Z,8.55
2023-01-02T18:11:12.824Z,8.32
2023-01-02T18:13:54.148Z,8.27
2023-01-02T18:16:27.190Z,8.62
2023-01-02T18:18:56.032Z,8.59
2023-01-02T18:21:24.312Z,8.46
2023-01-02T18:23:54.884Z,8.27
2023-01-02T18:26:22.381Z,8.18
2023-01-02T18:28:51.487Z,8.53
2023-01-02T18:31:23.761Z,8.58
2023-01-02T18:33:52.130Z,8.34
2023-01-02T18:36:21.894Z,8.15
2023-01-02T18:38:53.534Z,8.02
2023-01-02T18:41:25.766Z,8.40
2023-01-02T18:43:59.760Z,8.52
2023-01-02T18:47:03.518Z,8.41
2023-01-02T18:49:37.698Z,8.11
2023-01-02T18:52:10.893Z,8.20
2023-01-02T18:54:41.505Z,8.52
2023-01-02T18:57:14.375Z,8.50
2023-01-02T18:59:43.710Z,8.33
2023-01-02T19:02:37.066Z,8.09
2023-01-02T19:05:26.286Z,8.30
2023-01-02T19:08:02.423Z,8.54
2023-01-02T19:10:37.056Z,8.45
2023-01-02T19:13:19.551Z,8.22
2023-01-02T19:16:02.882Z,7.92
2023-01-02T19:18:40.581Z,8.31
2023-01-02T19:21:33.625Z,8.52
2023-01-02T19:24:19.022Z,8.36
2023-01-02T19:26:50.852Z,8.09
2023-01-02T19:29:20.179Z,7.82
2023-01-02T19:31:52.629Z,8.10
2023-01-02T19:34:41.583Z,8.34
2023-01-02T19:37:11.745Z,8.19
2023-01-02T19:39:47.687Z,7.97
2023-01-02T19:42:21.057Z,7.68
2023-01-02T19:44:50.362Z,7.58
2023-01-02T19:47:18.023Z,8.02
2023-01-02T19:49:45.271Z,8.32
2023-01-02T19:52:12.760Z,8.29
2023-01-02T19:54:43.567Z,7.99
2023-01-02T19:57:12.264Z,7.66
2023-01-02T19:59:43.757Z,7.50
2023-01-02T20:02:12.068Z,7.85
2023-01-02T20:04:40.559Z,8.28
2023-01-02T20:07:08.017Z,8.31
2023-01-02T20:09:35.067Z,8.11
2023-01-02T20:12:20.961Z,7.83
2023-01-02T20:14:48.004Z,7.50
2023-01-02T20:17:16.597Z,7.27
2023-01-02T20:19:43.741Z,7.63
2023-01-02T20:22:11.436Z,7.91
2023-01-02T20:24:38.647Z,7.87
2023-01-02T20:27:05.694Z,7.71
2023-01-02T20:29:33.152Z,7.45
2023-01-02T20:32:00.302Z,7.19
2023-01-02T20:34:27.246Z,7.00
2023-01-02T20:36:54.287Z,7.42
2023-01-02T20:39:21.201Z,7.95
2023-01-02T20:41:48.178Z,7.98
2023-01-02T20:44:15.448Z,7.82
2023-01-02T20:46:42.945Z,7.59
2023-01-02T20:49:10.243Z,7.33
2023-01-02T20:51:37.440Z,7.10
2023-01-02T20:54:04.852Z,7.46
2023-01-02T20:56:32.410Z,7.93
2023-01-02T20:58:59.333Z,7.96
2023-01-02T21:01:26.695Z,7.78
2023-01-02T21:03:54.036Z,7.55
2023-01-02T21:06:21.221Z,7.33
2023-01-02T21:08:48.365Z,7.06
2023-01-02T21:11:15.415Z,7.32
2023-01-02T21:13:42.280Z,7.77
2023-01-02T21:16:09.232Z,7.77
2023-01-02T21:18:38.596Z,7.58
2023-01-02T21:21:11.505Z,7.35
2023-01-02T21:23:39.611Z,7.12
2023-01-02T21:26:07.655Z,6.94
2023-01-02T21:28:34.981Z,7.32
2023-01-02T21:31:02.471Z,7.78
2023-01-02T21:33:29.805Z,7.80
2023-01-02T21:35:58.765Z,7.55
2023-01-02T21:38:26.968Z,7.18
2023-01-02T21:40:54.727Z,6.87
2023-01-02T21:43:22.410Z,6.77
2023-01-02T21:45:50.162Z,7.35
2023-01-02T21:48:17.049Z,7.56
2023-01-02T21:50:44.035Z,7.41
2023-01-02T21:53:11.268Z,7.13
2023-01-02T21:55:38.163Z,6.85
2023-01-02T21:58:13.753Z,6.65
2023-01-02T22:00:41.300Z,7.03
2023-01-02T22:03:08.601Z,7.31
2023-01-02T22:05:35.744Z,7.25
2023-01-02T22:08:02.743Z,7.01
2023-01-02T22:10:29.739Z,6.75
2023-01-02T22:12:56.649Z,6.52
2023-01-02T22:15:24.270Z,6.87
2023-01-02T22:17:51.280Z,7.29
2023-01-02T22:20:18.281Z,7.33
2023-01-02T22:22:45.176Z,7.12
2023-01-02T22:25:12.119Z,6.88
2023-01-02T22:27:39.171Z,6.62
2023-01-02T22:30:21.566Z,6.67
2023-01-02T22:32:51.589Z,7.19
2023-01-02T22:35:18.813Z,7.24
2023-01-02T22:37:45.993Z,7.07
2023-01-02T22:40:13.377Z,6.84
2023-01-02T22:43:04.926Z,6.62
2023-01-02T22:45:47.693Z,6.56
2023-01-02T22:48:17.901Z,7.08
2023-01-02T22:50:45.788Z,7.19
2023-01-02T22:53:27.495Z,6.99
2023-01-02T22:55:54.717Z,6.64
2023-01-02T22:58:22.270Z,6.38
2023-01-02T23:00:55.491Z,6.41
2023-01-02T23:03:22.517Z,6.74
2023-01-02T23:05:49.456Z,6.82
2023-01-02T23:08:16.460Z,6.65
2023-01-02T23:10:43.555Z,6.41
2023-01-02T23:13:10.592Z,6.21
2023-01-02T23:15:59.037Z,6.59
2023-01-02T23:18:45.040Z,7.09
2023-01-02T23:21:11.994Z,6.99
2023-01-02T23:23:38.928Z,6.69
2023-01-02T23:26:06.327Z,6.41
2023-01-02T23:29:05.174Z,6.15
2023-01-02T23:31:21.280Z,5.95
2023-01-02T23:33:48.233Z,6.47
2023-01-02T23:36:16.936Z,7.00
2023-01-02T23:38:44.347Z,7.00
2023-01-02T23:41:11.404Z,6.71
2023-01-02T23:43:38.463Z,6.43
2023-01-02T23:46:05.610Z,6.20
2023-01-02T23:48:32.548Z,5.96
2023-01-02T23:51:01.014Z,6.25
2023-01-02T23:53:28.154Z,6.71
2023-01-02T23:55:55.751Z,6.74
2023-01-02T23:58:22.774Z,6.53
